sensor_id;sensor_type;location;lat;lon;timestamp;temperature;humidity
7234;DHT22;3658;47.992;10.158;2022-08-18T00:00:08;23.70;55.00
7234;DHT22;3658;47.992;10.158;2022-08-18T00:02:40;23.70;55.00
7234;DHT22;3658;47.992;10.158;2022-08-18T00:05:08;23.70;55.00
7234;DHT22;3658;47.992;10.158;2022-08-18T00:07:37;23.70;55.00
7234;DHT22;3658;47.992;10.158;2022-08-18T00:10:05;23.70;55.00
7234;DHT22;3658;47.992;10.158;2022-08-18T00:12:35;23.70;55.00
7234;DHT22;3658;47.992;10.158;2022-08-18T00:15:03;23.70;54.90
7234;DHT22;3658;47.992;10.158;2022-08-18T00:17:31;23.60;54.90
7234;DHT22;3658;47.992;10.158;2022-08-18T00:20:00;23.60;54.90
7234;DHT22;3658;47.992;10.158;2022-08-18T00:22:28;23.60;54.90
7234;DHT22;3658;47.992;10.158;2022-08-18T00:24:56;23.60;54.80
7234;DHT22;3658;47.992;10.158;2022-08-18T00:27:26;23.60;54.80
7234;DHT22;3658;47.992;10.158;2022-08-18T00:29:54;23.60;54.80
7234;DHT22;3658;47.992;10.158;2022-08-18T00:32:24;23.60;54.80
7234;DHT22;3658;47.992;10.158;2022-08-18T00:34:53;23.70;54.90
7234;DHT22;3658;47.992;10.158;2022-08-18T00:37:23;23.60;55.40
7234;DHT22;3658;47.992;10.158;2022-08-18T00:39:50;23.60;54.80
7234;DHT22;3658;47.992;10.158;2022-08-18T00:42:20;23.60;54.80
7234;DHT22;3658;47.992;10.158;2022-08-18T00:44:47;23.60;54.80
7234;DHT22;3658;47.992;10.158;2022-08-18T00:47:14;23.70;54.80
7234;DHT22;3658;47.992;10.158;2022-08-18T00:49:42;23.60;54.70
7234;DHT22;3658;47.992;10.158;2022-08-18T00:52:11;23.60;54.70
7234;DHT22;3658;47.992;10.158;2022-08-18T00:54:42;23.60;54.70
7234;DHT22;3658;47.992;10.158;2022-08-18T00:57:10;23.60;54.70
7234;DHT22;3658;47.992;10.158;2022-08-18T00:59:40;23.60;54.60
7234;DHT22;3658;47.992;10.158;2022-08-18T01:02:16;23.60;54.60
7234;DHT22;3658;47.992;10.158;2022-08-18T01:04:50;23.60;54.60
7234;DHT22;3658;47.992;10.158;2022-08-18T01:07:22;23.60;54.60
7234;DHT22;3658;47.992;10.158;2022-08-18T01:09:56;23.60;54.60
7234;DHT22;3658;47.992;10.158;2022-08-18T01:12:24;23.60;54.60
7234;DHT22;3658;47.992;10.158;2022-08-18T01:14:52;23.60;55.20
7234;DHT22;3658;47.992;10.158;2022-08-18T01:17:20;23.60;54.60
7234;DHT22;3658;47.992;10.158;2022-08-18T01:20:06;23.60;54.60
7234;DHT22;3658;47.992;10.158;2022-08-18T01:23:10;23.60;54.60
7234;DHT22;3658;47.992;10.158;2022-08-18T01:25:39;23.60;54.60
7234;DHT22;3658;47.992;10.158;2022-08-18T01:28:23;23.60;54.60
7234;DHT22;3658;47.992;10.158;2022-08-18T01:30:52;23.60;54.60
7234;DHT22;3658;47.992;10.158;2022-08-18T01:33:23;23.60;54.60
7234;DHT22;3658;47.992;10.158;2022-08-18T01:35:54;23.60;54.60
7234;DHT22;3658;47.992;10.158;2022-08-18T01:38:23;23.60;54.50
7234;DHT22;3658;47.992;10.158;2022-08-18T01:40:51;23.60;54.50
7234;DHT22;3658;47.992;10.158;2022-08-18T01:43:19;23.60;54.50
7234;DHT22;3658;47.992;10.158;2022-08-18T01:45:46;23.60;54.50
7234;DHT22;3658;47.992;10.158;2022-08-18T01:48:14;23.60;54.50
7234;DHT22;3658;47.992;10.158;2022-08-18T01:50:41;23.60;54.50
7234;DHT22;3658;47.992;10.158;2022-08-18T01:53:10;23.60;54.50
7234;DHT22;3658;47.992;10.158;2022-08-18T01:55:40;23.60;54.50
7234;DHT22;3658;47.992;10.158;2022-08-18T01:58:10;23.60;54.50
7234;DHT22;3658;47.992;10.158;2022-08-18T02:00:38;23.60;54.50
7234;DHT22;3658;47.992;10.158;2022-08-18T02:03:10;23.60;54.50
7234;DHT22;3658;47.992;10.158;2022-08-18T02:05:40;23.60;54.50
7234;DHT22;3658;47.992;10.158;2022-08-18T02:08:09;23.60;54.50
7234;DHT22;3658;47.992;10.158;2022-08-18T02:10:37;23.60;54.50
7234;DHT22;3658;47.992;10.158;2022-08-18T02:13:06;23.60;54.50
7234;DHT22;3658;47.992;10.158;2022-08-18T02:15:34;23.60;54.40
7234;DHT22;3658;47.992;10.158;2022-08-18T02:18:01;23.60;54.50
7234;DHT22;3658;47.992;10.158;2022-08-18T02:20:28;23.60;54.40
7234;DHT22;3658;47.992;10.158;2022-08-18T02:22:55;23.60;54.40
7234;DHT22;3658;47.992;10.158;2022-08-18T02:25:23;23.60;54.40
7234;DHT22;3658;47.992;10.158;2022-08-18T02:27:50;23.60;54.40
7234;DHT22;3658;47.992;10.158;2022-08-18T02:30:19;23.60;54.40
7234;DHT22;3658;47.992;10.158;2022-08-18T02:32:46;23.60;54.40
7234;DHT22;3658;47.992;10.158;2022-08-18T02:35:14;23.60;54.40
7234;DHT22;3658;47.992;10.158;2022-08-18T02:37:42;23.60;54.40
7234;DHT22;3658;47.992;10.158;2022-08-18T02:40:13;23.60;54.40
7234;DHT22;3658;47.992;10.158;2022-08-18T02:42:40;23.60;54.40
7234;DHT22;3658;47.992;10.158;2022-08-18T02:45:08;23.60;54.40
7234;DHT22;3658;47.992;10.158;2022-08-18T02:47:36;23.60;54.40
7234;DHT22;3658;47.992;10.158;2022-08-18T02:50:05;23.60;54.40
7234;DHT22;3658;47.992;10.158;2022-08-18T02:52:33;23.60;54.40
7234;DHT22;3658;47.992;10.158;2022-08-18T02:55:01;23.60;54.40
7234;DHT22;3658;47.992;10.158;2022-08-18T02:57:29;23.60;54.40
7234;DHT22;3658;47.992;10.158;2022-08-18T02:59:57;23.60;54.40
7234;DHT22;3658;47.992;10.158;2022-08-18T03:02:25;23.60;54.40
7234;DHT22;3658;47.992;10.158;2022-08-18T03:04:54;23.60;54.40
7234;DHT22;3658;47.992;10.158;2022-08-18T03:07:21;23.60;54.40
7234;DHT22;3658;47.992;10.158;2022-08-18T03:09:50;23.60;54.40
7234;DHT22;3658;47.992;10.158;2022-08-18T03:12:17;23.60;54.40
7234;DHT22;3658;47.992;10.158;2022-08-18T03:14:44;23.60;54.40
7234;DHT22;3658;47.992;10.158;2022-08-18T03:17:11;23.60;54.40
7234;DHT22;3658;47.992;10.158;2022-08-18T03:19:39;23.60;54.40
7234;DHT22;3658;47.992;10.158;2022-08-18T03:22:11;23.60;54.30
7234;DHT22;3658;47.992;10.158;2022-08-18T03:24:39;23.60;54.40
7234;DHT22;3658;47.992;10.158;2022-08-18T03:27:06;23.60;54.40
7234;DHT22;3658;47.992;10.158;2022-08-18T03:29:34;23.60;54.40
7234;DHT22;3658;47.992;10.158;2022-08-18T03:32:02;23.60;54.40
7234;DHT22;3658;47.992;10.158;2022-08-18T03:34:30;23.60;54.30
7234;DHT22;3658;47.992;10.158;2022-08-18T03:36:57;23.60;54.40
7234;DHT22;3658;47.992;10.158;2022-08-18T03:39:26;23.60;54.30
7234;DHT22;3658;47.992;10.158;2022-08-18T03:41:54;23.60;54.30
7234;DHT22;3658;47.992;10.158;2022-08-18T03:44:22;23.60;54.30
7234;DHT22;3658;47.992;10.158;2022-08-18T03:46:50;23.60;54.40
7234;DHT22;3658;47.992;10.158;2022-08-18T03:49:18;23.60;54.30
7234;DHT22;3658;47.992;10.158;2022-08-18T03:51:47;23.60;54.30
7234;DHT22;3658;47.992;10.158;2022-08-18T03:54:17;23.60;54.30
7234;DHT22;3658;47.992;10.158;2022-08-18T03:56:46;23.60;54.30
7234;DHT22;3658;47.992;10.158;2022-08-18T03:59:15;23.50;54.20
7234;DHT22;3658;47.992;10.158;2022-08-18T04:01:45;23.50;54.20
7234;DHT22;3658;47.992;10.158;2022-08-18T04:04:14;23.60;54.30
7234;DHT22;3658;47.992;10.158;2022-08-18T04:06:43;23.60;54.30
7234;DHT22;3658;47.992;10.158;2022-08-18T04:09:13;23.50;54.20
7234;DHT22;3658;47.992;10.158;2022-08-18T04:11:41;23.50;54.20
7234;DHT22;3658;47.992;10.158;2022-08-18T04:14:11;23.50;54.20
7234;DHT22;3658;47.992;10.158;2022-08-18T04:16:39;23.60;54.30
7234;DHT22;3658;47.992;10.158;2022-08-18T04:19:07;23.50;54.20
7234;DHT22;3658;47.992;10.158;2022-08-18T04:21:37;23.50;54.20
7234;DHT22;3658;47.992;10.158;2022-08-18T04:24:07;23.50;54.20
7234;DHT22;3658;47.992;10.158;2022-08-18T04:26:36;23.50;54.20
7234;DHT22;3658;47.992;10.158;2022-08-18T04:29:04;23.50;54.20
7234;DHT22;3658;47.992;10.158;2022-08-18T04:31:32;23.50;54.20
7234;DHT22;3658;47.992;10.158;2022-08-18T04:34:00;23.50;54.20
7234;DHT22;3658;47.992;10.158;2022-08-18T04:36:29;23.50;54.20
7234;DHT22;3658;47.992;10.158;2022-08-18T04:38:58;23.50;54.10
7234;DHT22;3658;47.992;10.158;2022-08-18T04:41:26;23.50;54.10
7234;DHT22;3658;47.992;10.158;2022-08-18T04:43:54;23.50;54.10
7234;DHT22;3658;47.992;10.158;2022-08-18T04:46:22;23.50;54.10
7234;DHT22;3658;47.992;10.158;2022-08-18T04:48:50;23.50;54.10
7234;DHT22;3658;47.992;10.158;2022-08-18T04:51:21;23.50;54.20
7234;DHT22;3658;47.992;10.158;2022-08-18T04:53:48;23.50;54.10
7234;DHT22;3658;47.992;10.158;2022-08-18T04:56:16;23.50;54.10
7234;DHT22;3658;47.992;10.158;2022-08-18T04:58:46;23.50;54.10
7234;DHT22;3658;47.992;10.158;2022-08-18T05:01:15;23.50;54.10
7234;DHT22;3658;47.992;10.158;2022-08-18T05:03:43;23.50;54.10
7234;DHT22;3658;47.992;10.158;2022-08-18T05:06:11;23.50;54.10
7234;DHT22;3658;47.992;10.158;2022-08-18T05:08:38;23.50;54.10
7234;DHT22;3658;47.992;10.158;2022-08-18T05:11:05;23.50;54.70
7234;DHT22;3658;47.992;10.158;2022-08-18T05:13:33;23.50;54.10
7234;DHT22;3658;47.992;10.158;2022-08-18T05:16:00;23.50;54.10
7234;DHT22;3658;47.992;10.158;2022-08-18T05:18:29;23.50;54.10
7234;DHT22;3658;47.992;10.158;2022-08-18T05:20:56;23.50;54.10
7234;DHT22;3658;47.992;10.158;2022-08-18T05:23:27;23.50;54.10
7234;DHT22;3658;47.992;10.158;2022-08-18T05:25:58;23.50;54.10
7234;DHT22;3658;47.992;10.158;2022-08-18T05:28:26;23.50;54.10
7234;DHT22;3658;47.992;10.158;2022-08-18T05:30:54;23.50;54.10
7234;DHT22;3658;47.992;10.158;2022-08-18T05:33:23;23.50;54.10
7234;DHT22;3658;47.992;10.158;2022-08-18T05:35:53;23.50;54.20
7234;DHT22;3658;47.992;10.158;2022-08-18T05:38:38;23.50;54.20
7234;DHT22;3658;47.992;10.158;2022-08-18T05:41:09;23.50;54.30
7234;DHT22;3658;47.992;10.158;2022-08-18T05:43:38;23.50;54.40
7234;DHT22;3658;47.992;10.158;2022-08-18T05:46:06;23.50;54.40
7234;DHT22;3658;47.992;10.158;2022-08-18T05:48:36;23.50;54.40
7234;DHT22;3658;47.992;10.158;2022-08-18T05:51:11;23.40;54.40
7234;DHT22;3658;47.992;10.158;2022-08-18T05:53:41;23.50;54.50
7234;DHT22;3658;47.992;10.158;2022-08-18T05:56:30;23.50;54.50
7234;DHT22;3658;47.992;10.158;2022-08-18T05:59:18;23.40;54.40
7234;DHT22;3658;47.992;10.158;2022-08-18T06:01:50;23.40;54.50
7234;DHT22;3658;47.992;10.158;2022-08-18T06:04:25;23.50;54.60
7234;DHT22;3658;47.992;10.158;2022-08-18T06:06:54;23.40;54.50
7234;DHT22;3658;47.992;10.158;2022-08-18T06:09:27;23.40;54.60
7234;DHT22;3658;47.992;10.158;2022-08-18T06:12:03;23.40;54.60
7234;DHT22;3658;47.992;10.158;2022-08-18T06:14:36;23.40;54.60
7234;DHT22;3658;47.992;10.158;2022-08-18T06:17:14;23.50;54.70
7234;DHT22;3658;47.992;10.158;2022-08-18T06:19:50;23.40;54.60
7234;DHT22;3658;47.992;10.158;2022-08-18T06:22:26;23.40;54.70
7234;DHT22;3658;47.992;10.158;2022-08-18T06:25:02;23.40;54.70
7234;DHT22;3658;47.992;10.158;2022-08-18T06:27:37;23.40;54.70
7234;DHT22;3658;47.992;10.158;2022-08-18T06:30:11;23.40;54.80
7234;DHT22;3658;47.992;10.158;2022-08-18T06:33:00;23.40;55.10
7234;DHT22;3658;47.992;10.158;2022-08-18T06:35:33;23.50;55.30
7234;DHT22;3658;47.992;10.158;2022-08-18T06:38:10;23.50;55.50
7234;DHT22;3658;47.992;10.158;2022-08-18T06:41:03;23.50;55.80
7234;DHT22;3658;47.992;10.158;2022-08-18T06:43:36;23.50;55.90
7234;DHT22;3658;47.992;10.158;2022-08-18T06:46:19;23.50;55.90
7234;DHT22;3658;47.992;10.158;2022-08-18T06:48:53;23.50;56.70
7234;DHT22;3658;47.992;10.158;2022-08-18T06:51:26;23.50;56.20
7234;DHT22;3658;47.992;10.158;2022-08-18T06:53:59;23.50;56.20
7234;DHT22;3658;47.992;10.158;2022-08-18T06:56:44;23.50;56.10
7234;DHT22;3658;47.992;10.158;2022-08-18T06:59:19;23.50;56.20
7234;DHT22;3658;47.992;10.158;2022-08-18T07:01:50;23.50;56.20
7234;DHT22;3658;47.992;10.158;2022-08-18T07:04:35;23.50;56.20
7234;DHT22;3658;47.992;10.158;2022-08-18T07:07:18;23.50;56.10
7234;DHT22;3658;47.992;10.158;2022-08-18T07:09:46;23.50;56.10
7234;DHT22;3658;47.992;10.158;2022-08-18T07:12:21;23.50;56.20
7234;DHT22;3658;47.992;10.158;2022-08-18T07:14:50;23.50;56.20
7234;DHT22;3658;47.992;10.158;2022-08-18T07:17:24;23.50;56.10
7234;DHT22;3658;47.992;10.158;2022-08-18T07:20:00;23.50;56.20
7234;DHT22;3658;47.992;10.158;2022-08-18T07:22:28;23.50;56.20
7234;DHT22;3658;47.992;10.158;2022-08-18T07:24:57;23.50;56.10
7234;DHT22;3658;47.992;10.158;2022-08-18T07:27:48;23.50;56.10
7234;DHT22;3658;47.992;10.158;2022-08-18T07:30:27;23.50;56.10
7234;DHT22;3658;47.992;10.158;2022-08-18T07:32:59;23.50;56.20
7234;DHT22;3658;47.992;10.158;2022-08-18T07:35:31;23.50;56.20
7234;DHT22;3658;47.992;10.158;2022-08-18T07:38:03;23.50;56.20
7234;DHT22;3658;47.992;10.158;2022-08-18T07:40:37;23.50;56.20
7234;DHT22;3658;47.992;10.158;2022-08-18T07:43:21;23.50;56.10
7234;DHT22;3658;47.992;10.158;2022-08-18T07:45:56;23.50;56.10
7234;DHT22;3658;47.992;10.158;2022-08-18T07:48:30;23.50;56.00
7234;DHT22;3658;47.992;10.158;2022-08-18T07:51:02;23.50;56.00
7234;DHT22;3658;47.992;10.158;2022-08-18T07:53:41;23.50;56.00
7234;DHT22;3658;47.992;10.158;2022-08-18T07:56:17;23.50;55.90
7234;DHT22;3658;47.992;10.158;2022-08-18T07:58:50;23.50;56.00
7234;DHT22;3658;47.992;10.158;2022-08-18T08:01:24;23.50;55.90
7234;DHT22;3658;47.992;10.158;2022-08-18T08:04:00;23.50;55.90
7234;DHT22;3658;47.992;10.158;2022-08-18T08:06:32;23.50;55.90
7234;DHT22;3658;47.992;10.158;2022-08-18T08:09:12;23.50;55.90
7234;DHT22;3658;47.992;10.158;2022-08-18T08:11:49;23.50;55.90
7234;DHT22;3658;47.992;10.158;2022-08-18T08:14:34;23.50;55.90
7234;DHT22;3658;47.992;10.158;2022-08-18T08:17:09;23.50;55.90
7234;DHT22;3658;47.992;10.158;2022-08-18T08:20:11;23.50;55.90
7234;DHT22;3658;47.992;10.158;2022-08-18T08:23:00;23.60;55.90
7234;DHT22;3658;47.992;10.158;2022-08-18T08:25:36;23.50;55.90
7234;DHT22;3658;47.992;10.158;2022-08-18T08:28:15;23.50;55.90
7234;DHT22;3658;47.992;10.158;2022-08-18T08:30:54;23.50;55.80
7234;DHT22;3658;47.992;10.158;2022-08-18T08:33:32;23.50;55.80
7234;DHT22;3658;47.992;10.158;2022-08-18T08:36:05;23.50;55.80
7234;DHT22;3658;47.992;10.158;2022-08-18T08:38:40;23.50;55.80
7234;DHT22;3658;47.992;10.158;2022-08-18T08:41:12;23.50;55.80
7234;DHT22;3658;47.992;10.158;2022-08-18T08:43:44;23.50;55.80
7234;DHT22;3658;47.992;10.158;2022-08-18T08:46:19;23.50;55.70
7234;DHT22;3658;47.992;10.158;2022-08-18T08:48:51;23.50;55.70
7234;DHT22;3658;47.992;10.158;2022-08-18T08:51:28;23.50;55.70
7234;DHT22;3658;47.992;10.158;2022-08-18T08:54:03;23.50;55.70
7234;DHT22;3658;47.992;10.158;2022-08-18T08:56:35;23.50;55.70
7234;DHT22;3658;47.992;10.158;2022-08-18T08:59:09;23.50;55.70
7234;DHT22;3658;47.992;10.158;2022-08-18T09:01:44;23.50;55.70
7234;DHT22;3658;47.992;10.158;2022-08-18T09:04:27;23.50;55.70
7234;DHT22;3658;47.992;10.158;2022-08-18T09:07:12;23.50;55.70
7234;DHT22;3658;47.992;10.158;2022-08-18T09:10:18;23.50;55.70
7234;DHT22;3658;47.992;10.158;2022-08-18T09:12:58;23.50;55.70
7234;DHT22;3658;47.992;10.158;2022-08-18T09:15:41;23.50;55.60
7234;DHT22;3658;47.992;10.158;2022-08-18T09:18:28;23.50;55.60
7234;DHT22;3658;47.992;10.158;2022-08-18T09:21:07;23.50;55.50
7234;DHT22;3658;47.992;10.158;2022-08-18T09:23:42;23.50;55.50
7234;DHT22;3658;47.992;10.158;2022-08-18T09:26:26;23.50;55.50
7234;DHT22;3658;47.992;10.158;2022-08-18T09:29:13;23.50;55.40
7234;DHT22;3658;47.992;10.158;2022-08-18T09:31:43;23.50;55.50
7234;DHT22;3658;47.992;10.158;2022-08-18T09:34:36;23.50;55.40
7234;DHT22;3658;47.992;10.158;2022-08-18T09:37:19;23.60;55.50
7234;DHT22;3658;47.992;10.158;2022-08-18T09:39:54;23.50;55.40
7234;DHT22;3658;47.992;10.158;2022-08-18T09:42:47;23.60;55.40
7234;DHT22;3658;47.992;10.158;2022-08-18T09:48:26;23.60;55.40
7234;DHT22;3658;47.992;10.158;2022-08-18T09:54:16;23.50;55.40
7234;DHT22;3658;47.992;10.158;2022-08-18T09:59:52;23.60;55.40
7234;DHT22;3658;47.992;10.158;2022-08-18T10:05:35;23.50;55.30
7234;DHT22;3658;47.992;10.158;2022-08-18T10:08:28;23.60;55.40
7234;DHT22;3658;47.992;10.158;2022-08-18T10:11:07;23.60;55.40
7234;DHT22;3658;47.992;10.158;2022-08-18T10:13:47;23.60;55.40
7234;DHT22;3658;47.992;10.158;2022-08-18T10:16:20;23.50;55.30
7234;DHT22;3658;47.992;10.158;2022-08-18T10:19:03;23.50;55.30
7234;DHT22;3658;47.992;10.158;2022-08-18T10:22:00;23.50;55.30
7234;DHT22;3658;47.992;10.158;2022-08-18T10:24:34;23.50;55.30
7234;DHT22;3658;47.992;10.158;2022-08-18T10:27:04;23.50;55.30
7234;DHT22;3658;47.992;10.158;2022-08-18T10:29:53;23.50;55.30
7234;DHT22;3658;47.992;10.158;2022-08-18T10:38:08;23.50;55.40
7234;DHT22;3658;47.992;10.158;2022-08-18T10:40:39;23.50;55.40
7234;DHT22;3658;47.992;10.158;2022-08-18T10:43:17;23.60;55.50
7234;DHT22;3658;47.992;10.158;2022-08-18T10:45:47;23.50;55.40
7234;DHT22;3658;47.992;10.158;2022-08-18T10:48:19;23.50;55.40
7234;DHT22;3658;47.992;10.158;2022-08-18T10:50:51;23.50;55.40
7234;DHT22;3658;47.992;10.158;2022-08-18T10:53:23;23.60;55.40
7234;DHT22;3658;47.992;10.158;2022-08-18T10:56:00;23.50;55.30
7234;DHT22;3658;47.992;10.158;2022-08-18T10:59:00;23.60;55.40
7234;DHT22;3658;47.992;10.158;2022-08-18T11:01:52;23.60;55.40
7234;DHT22;3658;47.992;10.158;2022-08-18T11:04:26;23.60;55.40
7234;DHT22;3658;47.992;10.158;2022-08-18T11:07:01;23.50;55.30
7234;DHT22;3658;47.992;10.158;2022-08-18T11:09:29;23.60;55.30
7234;DHT22;3658;47.992;10.158;2022-08-18T11:12:00;23.50;55.20
7234;DHT22;3658;47.992;10.158;2022-08-18T11:17:35;23.50;55.20
7234;DHT22;3658;47.992;10.158;2022-08-18T11:20:06;23.50;55.90
7234;DHT22;3658;47.992;10.158;2022-08-18T11:22:35;23.50;55.20
7234;DHT22;3658;47.992;10.158;2022-08-18T11:25:15;23.50;55.20
7234;DHT22;3658;47.992;10.158;2022-08-18T11:27:46;23.60;55.20
7234;DHT22;3658;47.992;10.158;2022-08-18T11:30:13;23.60;55.20
7234;DHT22;3658;47.992;10.158;2022-08-18T11:32:41;23.60;55.80
7234;DHT22;3658;47.992;10.158;2022-08-18T11:35:11;23.60;55.20
7234;DHT22;3658;47.992;10.158;2022-08-18T11:37:44;23.60;55.20
7234;DHT22;3658;47.992;10.158;2022-08-18T11:40:31;23.60;55.20
7234;DHT22;3658;47.992;10.158;2022-08-18T11:43:04;23.60;55.20
7234;DHT22;3658;47.992;10.158;2022-08-18T11:45:35;23.50;55.10
7234;DHT22;3658;47.992;10.158;2022-08-18T11:48:19;23.60;55.20
7234;DHT22;3658;47.992;10.158;2022-08-18T11:50:57;23.60;55.20
7234;DHT22;3658;47.992;10.158;2022-08-18T11:53:36;23.50;55.10
7234;DHT22;3658;47.992;10.158;2022-08-18T11:56:10;23.50;55.10
7234;DHT22;3658;47.992;10.158;2022-08-18T11:58:43;23.50;55.10
7234;DHT22;3658;47.992;10.158;2022-08-18T12:01:32;23.50;55.10
7234;DHT22;3658;47.992;10.158;2022-08-18T12:04:13;23.50;55.10
7234;DHT22;3658;47.992;10.158;2022-08-18T12:06:56;23.50;55.10
7234;DHT22;3658;47.992;10.158;2022-08-18T12:09:33;23.50;55.10
7234;DHT22;3658;47.992;10.158;2022-08-18T12:12:04;23.50;55.10
7234;DHT22;3658;47.992;10.158;2022-08-18T12:14:51;23.50;55.10
7234;DHT22;3658;47.992;10.158;2022-08-18T12:17:18;23.50;55.20
7234;DHT22;3658;47.992;10.158;2022-08-18T12:19:45;23.50;55.10
7234;DHT22;3658;47.992;10.158;2022-08-18T12:22:15;23.50;55.10
7234;DHT22;3658;47.992;10.158;2022-08-18T12:24:43;23.50;55.20
7234;DHT22;3658;47.992;10.158;2022-08-18T12:27:12;23.50;55.20
7234;DHT22;3658;47.992;10.158;2022-08-18T12:29:41;23.50;55.10
7234;DHT22;3658;47.992;10.158;2022-08-18T12:32:09;23.50;55.10
7234;DHT22;3658;47.992;10.158;2022-08-18T12:34:36;23.50;55.10
7234;DHT22;3658;47.992;10.158;2022-08-18T12:37:07;23.50;55.10
7234;DHT22;3658;47.992;10.158;2022-08-18T12:39:35;23.50;55.10
7234;DHT22;3658;47.992;10.158;2022-08-18T12:42:03;23.50;55.10
7234;DHT22;3658;47.992;10.158;2022-08-18T12:44:30;23.50;55.10
7234;DHT22;3658;47.992;10.158;2022-08-18T12:47:00;23.50;55.20
7234;DHT22;3658;47.992;10.158;2022-08-18T12:49:27;23.50;55.20
7234;DHT22;3658;47.992;10.158;2022-08-18T12:51:56;23.50;55.10
7234;DHT22;3658;47.992;10.158;2022-08-18T12:54:23;23.50;55.10
7234;DHT22;3658;47.992;10.158;2022-08-18T12:56:52;23.50;55.20
7234;DHT22;3658;47.992;10.158;2022-08-18T12:59:20;23.50;55.20
7234;DHT22;3658;47.992;10.158;2022-08-18T13:01:47;23.50;55.20
7234;DHT22;3658;47.992;10.158;2022-08-18T13:04:15;23.50;55.20
7234;DHT22;3658;47.992;10.158;2022-08-18T13:06:45;23.50;55.20
7234;DHT22;3658;47.992;10.158;2022-08-18T13:09:12;23.50;55.10
7234;DHT22;3658;47.992;10.158;2022-08-18T13:11:40;23.50;55.10
7234;DHT22;3658;47.992;10.158;2022-08-18T13:14:07;23.50;55.10
7234;DHT22;3658;47.992;10.158;2022-08-18T13:16:35;23.50;55.10
7234;DHT22;3658;47.992;10.158;2022-08-18T13:19:03;23.50;55.20
7234;DHT22;3658;47.992;10.158;2022-08-18T13:21:31;23.50;55.10
7234;DHT22;3658;47.992;10.158;2022-08-18T13:23:58;23.50;55.10
7234;DHT22;3658;47.992;10.158;2022-08-18T13:26:27;23.50;55.20
7234;DHT22;3658;47.992;10.158;2022-08-18T13:28:54;23.50;55.10
7234;DHT22;3658;47.992;10.158;2022-08-18T13:31:22;23.50;55.10
7234;DHT22;3658;47.992;10.158;2022-08-18T13:33:49;23.50;55.20
7234;DHT22;3658;47.992;10.158;2022-08-18T13:36:16;23.50;55.20
7234;DHT22;3658;47.992;10.158;2022-08-18T13:38:44;23.50;55.30
7234;DHT22;3658;47.992;10.158;2022-08-18T13:41:11;23.50;55.40
7234;DHT22;3658;47.992;10.158;2022-08-18T13:43:41;23.50;55.40
7234;DHT22;3658;47.992;10.158;2022-08-18T13:46:09;23.50;55.40
7234;DHT22;3658;47.992;10.158;2022-08-18T13:48:37;23.50;55.40
7234;DHT22;3658;47.992;10.158;2022-08-18T13:51:06;23.50;55.40
7234;DHT22;3658;47.992;10.158;2022-08-18T13:53:35;23.50;55.40
7234;DHT22;3658;47.992;10.158;2022-08-18T13:56:05;23.50;55.40
7234;DHT22;3658;47.992;10.158;2022-08-18T13:58:34;23.50;55.30
7234;DHT22;3658;47.992;10.158;2022-08-18T14:01:04;23.50;55.30
7234;DHT22;3658;47.992;10.158;2022-08-18T14:03:32;23.50;55.30
7234;DHT22;3658;47.992;10.158;2022-08-18T14:06:00;23.50;55.30
7234;DHT22;3658;47.992;10.158;2022-08-18T14:08:27;23.50;55.30
7234;DHT22;3658;47.992;10.158;2022-08-18T14:10:58;23.50;55.40
7234;DHT22;3658;47.992;10.158;2022-08-18T14:13:28;23.50;55.30
7234;DHT22;3658;47.992;10.158;2022-08-18T14:15:56;23.50;55.40
7234;DHT22;3658;47.992;10.158;2022-08-18T14:18:25;23.50;55.40
7234;DHT22;3658;47.992;10.158;2022-08-18T14:20:54;23.40;55.40
7234;DHT22;3658;47.992;10.158;2022-08-18T14:23:38;23.50;55.50
7234;DHT22;3658;47.992;10.158;2022-08-18T14:26:23;23.40;55.50
7234;DHT22;3658;47.992;10.158;2022-08-18T14:29:08;23.40;55.50
7234;DHT22;3658;47.992;10.158;2022-08-18T14:31:35;23.40;55.60
7234;DHT22;3658;47.992;10.158;2022-08-18T14:34:02;23.40;55.50
7234;DHT22;3658;47.992;10.158;2022-08-18T14:36:29;23.40;55.60
7234;DHT22;3658;47.992;10.158;2022-08-18T14:38:57;23.40;55.60
7234;DHT22;3658;47.992;10.158;2022-08-18T14:41:24;23.40;55.60
7234;DHT22;3658;47.992;10.158;2022-08-18T14:43:51;23.40;55.60
7234;DHT22;3658;47.992;10.158;2022-08-18T14:46:22;23.40;55.60
7234;DHT22;3658;47.992;10.158;2022-08-18T14:48:49;23.40;55.60
7234;DHT22;3658;47.992;10.158;2022-08-18T14:51:16;23.40;55.60
7234;DHT22;3658;47.992;10.158;2022-08-18T14:53:43;23.40;55.60
7234;DHT22;3658;47.992;10.158;2022-08-18T14:56:11;23.40;55.60
7234;DHT22;3658;47.992;10.158;2022-08-18T14:58:38;23.40;55.60
7234;DHT22;3658;47.992;10.158;2022-08-18T15:01:07;23.40;55.60
7234;DHT22;3658;47.992;10.158;2022-08-18T15:03:37;23.40;55.60
7234;DHT22;3658;47.992;10.158;2022-08-18T15:06:05;23.40;55.60
7234;DHT22;3658;47.992;10.158;2022-08-18T15:08:33;23.40;55.60
7234;DHT22;3658;47.992;10.158;2022-08-18T15:11:01;23.40;55.60
7234;DHT22;3658;47.992;10.158;2022-08-18T15:13:30;23.40;55.60
7234;DHT22;3658;47.992;10.158;2022-08-18T15:15:56;23.40;55.70
7234;DHT22;3658;47.992;10.158;2022-08-18T15:18:23;23.40;55.70
7234;DHT22;3658;47.992;10.158;2022-08-18T15:20:52;23.40;55.70
7234;DHT22;3658;47.992;10.158;2022-08-18T15:23:36;23.40;55.70
7234;DHT22;3658;47.992;10.158;2022-08-18T15:26:23;23.40;55.70
7234;DHT22;3658;47.992;10.158;2022-08-18T15:28:51;23.40;55.70
7234;DHT22;3658;47.992;10.158;2022-08-18T15:31:18;23.40;55.70
7234;DHT22;3658;47.992;10.158;2022-08-18T15:33:45;23.40;55.70
7234;DHT22;3658;47.992;10.158;2022-08-18T15:36:14;23.40;55.70
7234;DHT22;3658;47.992;10.158;2022-08-18T15:38:44;23.40;55.70
7234;DHT22;3658;47.992;10.158;2022-08-18T15:41:27;23.40;55.70
7234;DHT22;3658;47.992;10.158;2022-08-18T15:43:54;23.50;55.80
7234;DHT22;3658;47.992;10.158;2022-08-18T15:46:21;23.40;55.70
7234;DHT22;3658;47.992;10.158;2022-08-18T15:48:48;23.40;55.70
7234;DHT22;3658;47.992;10.158;2022-08-18T15:51:17;23.40;55.90
7234;DHT22;3658;47.992;10.158;2022-08-18T15:53:45;23.40;55.90
7234;DHT22;3658;47.992;10.158;2022-08-18T15:56:15;23.40;55.70
7234;DHT22;3658;47.992;10.158;2022-08-18T15:58:42;23.40;55.80
7234;DHT22;3658;47.992;10.158;2022-08-18T16:01:11;23.40;55.90
7234;DHT22;3658;47.992;10.158;2022-08-18T16:03:39;23.40;55.90
7234;DHT22;3658;47.992;10.158;2022-08-18T16:06:11;23.40;56.10
7234;DHT22;3658;47.992;10.158;2022-08-18T16:08:40;23.40;56.10
7234;DHT22;3658;47.992;10.158;2022-08-18T16:11:09;23.40;56.10
7234;DHT22;3658;47.992;10.158;2022-08-18T16:13:36;23.40;56.30
7234;DHT22;3658;47.992;10.158;2022-08-18T16:16:08;23.40;56.80
7234;DHT22;3658;47.992;10.158;2022-08-18T16:18:36;23.50;57.10
7234;DHT22;3658;47.992;10.158;2022-08-18T16:21:04;23.50;57.20
7234;DHT22;3658;47.992;10.158;2022-08-18T16:23:35;23.50;57.40
7234;DHT22;3658;47.992;10.158;2022-08-18T16:26:04;23.50;57.60
7234;DHT22;3658;47.992;10.158;2022-08-18T16:28:31;23.50;57.60
7234;DHT22;3658;47.992;10.158;2022-08-18T16:30:59;23.50;57.60
7234;DHT22;3658;47.992;10.158;2022-08-18T16:33:27;23.50;57.90
7234;DHT22;3658;47.992;10.158;2022-08-18T16:36:00;23.50;58.00